createdAt,value
2023-03-05T00:00:35.158Z,47.70
2023-03-05T00:04:39.303Z,45.85
2023-03-05T00:08:42.090Z,48.50
2023-03-05T00:12:44.850Z,52.83
2023-03-05T00:16:47.700Z,53.67
2023-03-05T00:20:52.038Z,53.95
2023-03-05T00:24:54.840Z,50.97
2023-03-05T00:28:58.910Z,57.20
2023-03-05T00:33:02.099Z,46.60
2023-03-05T00:37:06.326Z,57.72
2023-03-05T00:41:09.646Z,47.28
2023-03-05T00:45:13.346Z,52.85
2023-03-05T00:49:16.133Z,54.38
2023-03-05T00:53:20.516Z,55.58
2023-03-05T00:57:23.380Z,57.33
2023-03-05T01:01:26.660Z,50.72
2023-03-05T01:05:29.783Z,56.38
2023-03-05T01:09:34.016Z,58.38
2023-03-05T01:13:37.038Z,53.75
2023-03-05T01:17:39.949Z,55.95
2023-03-05T01:21:43.589Z,50.83
2023-03-05T01:25:53.639Z,58.53
2023-03-05T01:29:56.434Z,50.33
2023-03-05T01:34:01.146Z,61.30
2023-03-05T01:38:03.989Z,57.72
2023-03-05T01:42:08.792Z,56.33
2023-03-05T01:46:24.577Z,56.97
2023-03-05T01:50:28.507Z,59.90
2023-03-05T01:54:35.250Z,58.22
2023-03-05T01:58:40.528Z,58.65
2023-03-05T02:02:44.614Z,58.40
2023-03-05T02:06:48.329Z,55.63
2023-03-05T02:10:53.740Z,65.72
2023-03-05T02:15:00.636Z,66.25
2023-03-05T02:19:04.658Z,60.03
2023-03-05T02:23:08.850Z,66.28
2023-03-05T02:27:14.077Z,66.28
2023-03-05T02:31:19.819Z,65.82
2023-03-05T02:35:22.821Z,59.55
2023-03-05T02:39:27.072Z,60.17
2023-03-05T02:43:29.964Z,57.25
2023-03-05T02:47:33.128Z,62.92
2023-03-05T02:51:37.179Z,64.40
2023-03-05T02:55:41.576Z,59.38
2023-03-05T02:59:44.533Z,64.25
2023-03-05T03:03:47.421Z,67.32
2023-03-05T03:07:50.649Z,62.53
2023-03-05T03:11:54.847Z,59.72
2023-03-05T03:16:03.596Z,67.72
2023-03-05T03:20:09.053Z,67.78
2023-03-05T03:24:11.874Z,69.37
2023-03-05T03:28:16.029Z,60.85
2023-03-05T03:32:18.900Z,63.40
2023-03-05T03:36:21.851Z,61.38
2023-03-05T03:40:24.649Z,60.55
2023-03-05T03:44:28.788Z,57.17
2023-03-05T03:48:31.554Z,64.03
2023-03-05T03:52:34.365Z,62.55
2023-03-05T03:56:37.186Z,57.95
2023-03-05T04:00:42.565Z,59.65
2023-03-05T04:04:45.670Z,60.67
2023-03-05T04:08:48.490Z,60.38
2023-03-05T04:12:51.329Z,63.03
2023-03-05T04:16:55.513Z,61.92
2023-03-05T04:20:58.348Z,60.50
2023-03-05T04:25:03.681Z,56.08
2023-03-05T04:29:06.472Z,64.35
2023-03-05T04:33:10.877Z,55.28
2023-03-05T04:37:13.657Z,57.38
2023-03-05T04:41:16.448Z,60.85
2023-03-05T04:45:19.291Z,57.40
2023-03-05T04:49:23.438Z,53.75
2023-03-05T04:53:26.405Z,51.58
2023-03-05T04:57:29.213Z,64.32
2023-03-05T05:01:32.945Z,56.67
2023-03-05T05:05:37.630Z,60.40
2023-03-05T05:09:41.197Z,57.65
2023-03-05T05:13:43.976Z,56.78
2023-03-05T05:17:47.151Z,56.55
2023-03-05T05:21:51.294Z,61.88
2023-03-05T05:25:58.581Z,52.47
2023-03-05T05:30:01.589Z,54.88
2023-03-05T05:34:04.407Z,58.38
2023-03-05T05:38:08.526Z,55.47
2023-03-05T05:42:11.298Z,51.70
2023-03-05T05:46:16.229Z,62.67
2023-03-05T05:50:19.943Z,54.10
2023-03-05T05:54:24.153Z,52.65
2023-03-05T05:58:26.988Z,54.95
2023-03-05T06:02:29.778Z,54.15
2023-03-05T06:06:33.477Z,54.55
2023-03-05T06:10:37.687Z,52.88
2023-03-05T06:14:40.495Z,56.13
2023-03-05T06:18:43.441Z,54.85
2023-03-05T06:22:46.276Z,50.80
2023-03-05T06:26:50.508Z,53.88
2023-03-05T06:31:01.184Z,50.30
2023-03-05T06:35:04.381Z,49.13
2023-03-05T06:39:07.962Z,47.67
2023-03-05T06:43:12.338Z,50.72
2023-03-05T06:47:15.260Z,51.13
2023-03-05T06:51:20.631Z,46.42
2023-03-05T06:55:23.561Z,54.67
2023-03-05T06:59:27.710Z,50.33
2023-03-05T07:03:30.539Z,54.47
2023-03-05T07:07:33.551Z,46.63
2023-03-05T07:11:36.418Z,47.35
2023-03-05T07:15:41.692Z,48.20
2023-03-05T07:19:45.234Z,47.95
2023-03-05T07:23:48.382Z,48.33
2023-03-05T07:27:51.315Z,46.10
2023-03-05T07:31:56.272Z,44.38
2023-03-05T07:35:59.296Z,45.15
2023-03-05T07:40:02.285Z,42.60
2023-03-05T07:44:05.315Z,42.00
2023-03-05T07:48:13.271Z,46.08
2023-03-05T07:52:16.401Z,52.40
2023-03-05T07:56:23.405Z,47.40
2023-03-05T08:00:26.368Z,44.05
2023-03-05T08:04:31.928Z,41.42
2023-03-05T08:08:36.175Z,49.90
2023-03-05T08:12:39.064Z,38.00
2023-03-05T08:16:42.556Z,49.08
2023-03-05T08:20:46.745Z,49.80
2023-03-05T08:24:50.528Z,43.15
2023-03-05T08:28:53.774Z,42.22
2023-03-05T08:32:57.355Z,51.92
2023-03-05T08:37:01.608Z,42.55
2023-03-05T08:41:04.685Z,46.67
2023-03-05T08:45:09.178Z,39.03
2023-03-05T08:49:12.259Z,46.72
2023-03-05T08:53:16.420Z,47.17
2023-03-05T08:57:19.288Z,46.03
2023-03-05T09:01:22.587Z,41.58
2023-03-05T09:05:25.514Z,44.50
2023-03-05T09:09:32.453Z,38.88
2023-03-05T09:13:35.721Z,44.63
2023-03-05T09:17:41.711Z,45.33
2023-03-05T09:21:44.561Z,42.58
2023-03-05T09:25:49.441Z,48.47
2023-03-05T09:29:53.068Z,50.50
2023-03-05T09:33:55.951Z,55.28
2023-03-05T09:37:58.759Z,64.82
2023-03-05T09:42:24.318Z,50.03
2023-03-05T09:46:35.939Z,45.67
2023-03-05T09:50:41.741Z,47.63
2023-03-05T09:54:47.497Z,49.28
2023-03-05T09:58:56.087Z,40.55
2023-03-05T10:03:02.053Z,46.65
2023-03-05T10:07:13.221Z,57.67
2023-03-05T10:11:30.573Z,49.35
2023-03-05T10:15:43.625Z,39.30
2023-03-05T10:20:01.616Z,44.90
2023-03-05T10:24:16.274Z,45.00
2023-03-05T10:28:22.801Z,41.65
2023-03-05T10:32:41.865Z,41.15
2023-03-05T10:36:58.845Z,44.67
2023-03-05T10:41:08.806Z,44.38
2023-03-05T10:45:17.457Z,49.50
2023-03-05T10:49:24.961Z,43.75
2023-03-05T10:53:30.253Z,43.67
2023-03-05T10:57:33.364Z,38.85
2023-03-05T11:01:37.364Z,49.75
2023-03-05T11:05:49.077Z,42.30
2023-03-05T11:10:05.109Z,42.63
2023-03-05T11:14:29.848Z,41.40
2023-03-05T11:18:34.645Z,36.55
2023-03-05T11:22:38.880Z,46.78
2023-03-05T11:26:49.582Z,38.75
2023-03-05T11:31:01.433Z,37.45
2023-03-05T11:35:29.931Z,42.17
2023-03-05T11:39:38.340Z,38.35
2023-03-05T11:43:44.289Z,39.83
2023-03-05T11:47:49.835Z,40.25
2023-03-05T11:52:01.203Z,35.20
2023-03-05T11:56:19.022Z,36.03
2023-03-05T12:00:29.298Z,33.42
2023-03-05T12:04:35.013Z,33.10
2023-03-05T12:08:42.016Z,31.57
2023-03-05T12:12:51.988Z,37.08
2023-03-05T12:16:57.750Z,31.38
2023-03-05T12:21:07.003Z,35.45
2023-03-05T12:25:28.107Z,31.23
2023-03-05T12:29:40.947Z,37.33
2023-03-05T12:33:46.065Z,32.38
2023-03-05T12:38:01.790Z,30.98
2023-03-05T12:42:49.661Z,29.40
2023-03-05T12:47:23.388Z,24.15
2023-03-05T12:51:35.518Z,27.02
2023-03-05T12:55:46.554Z,26.90
2023-03-05T12:59:52.557Z,24.27
2023-03-05T13:03:59.596Z,25.48
2023-03-05T13:08:16.038Z,24.48
2023-03-05T13:12:19.239Z,23.70
2023-03-05T13:16:25.877Z,24.48
2023-03-05T13:20:37.672Z,23.67
2023-03-05T13:24:40.513Z,21.17
2023-03-05T13:28:45.045Z,22.08
2023-03-05T13:32:52.625Z,20.67
2023-03-05T13:37:00.670Z,23.27
2023-03-05T13:41:21.015Z,22.05
2023-03-05T13:45:27.862Z,30.00
2023-03-05T13:49:30.733Z,25.42
2023-03-05T13:53:35.413Z,22.27
2023-03-05T13:57:40.526Z,25.70
2023-03-05T14:01:45.369Z,24.63
2023-03-05T14:05:49.891Z,23.38
2023-03-05T14:09:54.483Z,22.58
2023-03-05T14:14:07.660Z,33.28
2023-03-05T14:18:19.278Z,24.45
2023-03-05T14:22:35.432Z,26.48
2023-03-05T14:26:48.204Z,29.38
2023-03-05T14:30:54.563Z,24.02
2023-03-05T14:34:59.532Z,30.83
2023-03-05T14:39:02.464Z,26.77
2023-03-05T14:43:07.111Z,27.10
2023-03-05T14:47:09.956Z,24.65
2023-03-05T14:51:12.793Z,24.13
2023-03-05T14:55:16.634Z,24.83
2023-03-05T14:59:22.018Z,33.47
2023-03-05T15:03:25.780Z,26.13
2023-03-05T15:07:31.865Z,26.73
2023-03-05T15:11:34.732Z,28.50
2023-03-05T15:15:40.088Z,27.52
2023-03-05T15:19:42.953Z,32.50
2023-03-05T15:23:45.738Z,28.05
2023-03-05T15:27:49.085Z,30.02
2023-03-05T15:31:55.245Z,33.63
2023-03-05T15:35:58.753Z,30.70
2023-03-05T15:40:01.528Z,31.88
2023-03-05T15:44:04.355Z,28.50
2023-03-05T15:48:09.142Z,29.33
2023-03-05T15:52:11.972Z,32.50
2023-03-05T15:56:17.703Z,30.13
2023-03-05T16:00:23.835Z,28.98
2023-03-05T16:04:29.820Z,32.80
2023-03-05T16:08:33.276Z,20.17
2023-03-05T16:12:40.801Z,20.38
2023-03-05T16:16:43.880Z,25.00
2023-03-05T16:20:48.642Z,21.60
2023-03-05T16:24:51.469Z,23.75
2023-03-05T16:28:54.504Z,19.52
2023-03-05T16:32:57.528Z,21.85
2023-03-05T16:37:04.431Z,15.88
2023-03-05T16:41:08.733Z,24.13
2023-03-05T16:45:13.116Z,20.88
2023-03-05T16:49:16.420Z,21.23
2023-03-05T16:53:21.065Z,18.27
2023-03-05T16:57:25.425Z,42.50
2023-03-05T17:01:30.196Z,24.88
2023-03-05T17:05:33.010Z,17.42
2023-03-05T17:09:37.661Z,19.23
2023-03-05T17:13:41.085Z,16.27
2023-03-05T17:17:43.881Z,16.50
2023-03-05T17:21:50.563Z,23.70
2023-03-05T17:25:55.205Z,20.25
2023-03-05T17:29:58.680Z,21.48
2023-03-05T17:34:01.673Z,18.67
2023-03-05T17:38:05.133Z,17.25
2023-03-05T17:42:09.176Z,21.75
2023-03-05T17:46:12.613Z,24.17
2023-03-05T17:50:15.642Z,25.50
2023-03-05T17:54:18.475Z,23.95
2023-03-05T17:58:22.644Z,41.70
2023-03-05T18:02:25.443Z,26.85
2023-03-05T18:06:28.539Z,22.15
2023-03-05T18:10:32.188Z,26.50
2023-03-05T18:14:36.390Z,39.30
2023-03-05T18:18:39.315Z,25.65
2023-03-05T18:22:42.105Z,28.13
2023-03-05T18:26:45.081Z,26.75
2023-03-05T18:30:49.320Z,28.38
2023-03-05T18:34:52.154Z,33.35
2023-03-05T18:38:57.507Z,32.53
2023-03-05T18:43:01.626Z,38.97
2023-03-05T18:47:05.819Z,37.45
2023-03-05T18:51:15.076Z,45.42
2023-03-05T18:55:19.594Z,36.58
2023-03-05T18:59:22.362Z,29.33
2023-03-05T19:03:26.578Z,37.78
2023-03-05T19:07:30.023Z,26.60
2023-03-05T19:11:32.860Z,21.33
2023-03-05T19:15:35.603Z,21.58
2023-03-05T19:19:42.657Z,22.20
2023-03-05T19:23:45.446Z,28.65
2023-03-05T19:27:48.255Z,22.42
2023-03-05T19:31:51.106Z,25.27
2023-03-05T19:35:55.355Z,22.90
2023-03-05T19:39:58.139Z,24.80
2023-03-05T19:44:01.317Z,26.00
2023-03-05T19:48:04.148Z,25.50
2023-03-05T19:52:08.970Z,28.70
2023-03-05T19:56:12.509Z,29.33
2023-03-05T20:00:15.822Z,29.27
2023-03-05T20:04:21.232Z,25.33
2023-03-05T20:08:25.375Z,25.20
2023-03-05T20:12:28.157Z,23.65
2023-03-05T20:16:35.022Z,23.15
2023-03-05T20:20:37.859Z,22.63
2023-03-05T20:24:42.003Z,24.63
2023-03-05T20:28:44.817Z,26.10
2023-03-05T20:32:48.429Z,26.27
2023-03-05T20:36:51.191Z,22.95
2023-03-05T20:40:58.437Z,26.02
2023-03-05T20:45:01.183Z,26.65
2023-03-05T20:49:05.090Z,22.58
2023-03-05T20:53:07.990Z,28.73
2023-03-05T20:57:12.069Z,24.77
2023-03-05T21:01:14.929Z,23.67
2023-03-05T21:05:17.976Z,16.92
2023-03-05T21:09:20.764Z,24.85
2023-03-05T21:13:25.077Z,23.67
2023-03-05T21:17:27.922Z,24.40
2023-03-05T21:21:31.567Z,24.38
2023-03-05T21:25:35.075Z,26.70
2023-03-05T21:29:39.156Z,26.02
2023-03-05T21:33:42.227Z,25.83
2023-03-05T21:37:45.435Z,25.75
2023-03-05T21:41:48.315Z,22.80
2023-03-05T21:45:53.830Z,23.58
2023-03-05T21:49:56.867Z,22.23
2023-03-05T21:53:59.745Z,21.15
2023-03-05T21:58:03.844Z,20.63
2023-03-05T22:02:10.848Z,19.33
2023-03-05T22:06:15.576Z,24.35
2023-03-05T22:10:21.125Z,26.02
2023-03-05T22:14:24.082Z,27.70
2023-03-05T22:18:30.080Z,20.50
2023-03-05T22:22:32.871Z,21.08
2023-03-05T22:26:37.295Z,25.70
2023-03-05T22:30:44.191Z,22.58
2023-03-05T22:34:48.314Z,23.83
2023-03-05T22:38:51.391Z,24.50
2023-03-05T22:42:54.126Z,22.25
2023-03-05T22:46:56.933Z,21.17
2023-03-05T22:51:01.112Z,21.90
2023-03-05T22:55:04.627Z,25.10
2023-03-05T22:59:07.451Z,20.02
2023-03-05T23:03:10.282Z,28.70
2023-03-05T23:07:14.688Z,22.80
2023-03-05T23:11:17.483Z,21.65
2023-03-05T23:15:23.332Z,30.33
2023-03-05T23:19:26.106Z,25.67
2023-03-05T23:23:30.269Z,25.08
2023-03-05T23:27:33.194Z,22.17
2023-03-05T23:31:36.080Z,22.40
2023-03-05T23:35:40.346Z,23.90
2023-03-05T23:39:44.544Z,24.45
2023-03-05T23:43:47.284Z,27.55
2023-03-05T23:47:51.170Z,19.25
2023-03-05T23:51:54.221Z,20.65
2023-03-05T23:55:58.572Z,19.45
